Time;durP1;ratioP1;P1;durP2;ratioP2;P2;SDS_P1;SDS_P2;PMS_P1;PMS_P2;Temp;Humidity;BMP_temperature;BMP_pressure;BME280_temperature;BME280_humidity;BME280_pressure;Samples;Min_cycle;Max_cycle;Signal;HPM_P1;HPM_P2
2021/03/17 00:00:43;;;;;;;19.80;18.90;;;5.70;99.90;;;;;;5095458;28;20456;-73
2021/03/17 00:03:10;;;;;;;19.53;18.60;;;5.70;99.90;;;;;;5095443;28;20550;-74
2021/03/17 00:05:38;;;;;;;19.90;19.00;;;5.70;99.90;;;;;;5095134;28;20505;-73
2021/03/17 00:08:06;;;;;;;21.60;20.50;;;5.70;99.90;;;;;;5095260;28;20446;-74
2021/03/17 00:10:34;;;;;;;19.40;18.50;;;5.80;99.90;;;;;;5095310;28;20441;-74
2021/03/17 00:13:01;;;;;;;19.10;18.20;;;5.80;99.90;;;;;;5095202;28;20453;-74
2021/03/17 00:15:30;;;;;;;17.97;17.10;;;5.80;99.90;;;;;;5095135;28;20508;-74
2021/03/17 00:17:58;;;;;;;18.87;17.93;;;5.80;99.90;;;;;;5095308;28;20480;-74
2021/03/17 00:20:25;;;;;;;18.30;17.40;;;5.80;99.90;;;;;;5095017;28;20450;-74
2021/03/17 00:22:52;;;;;;;17.30;16.50;;;5.80;99.90;;;;;;5094774;28;20478;-75
2021/03/17 00:25:19;;;;;;;17.77;16.97;;;5.70;99.90;;;;;;5094705;28;21039;-74
2021/03/17 00:27:45;;;;;;;18.67;17.57;;;5.70;99.90;;;;;;5094892;28;20464;-74
2021/03/17 00:30:13;;;;;;;17.80;17.00;;;5.70;99.90;;;;;;5094924;28;20461;-74
2021/03/17 00:32:39;;;;;;;18.23;17.23;;;5.70;99.90;;;;;;5094717;28;20470;-74
2021/03/17 00:35:07;;;;;;;18.60;17.70;;;5.80;99.90;;;;;;5094599;28;20449;-73
2021/03/17 00:37:34;;;;;;;16.90;16.10;;;5.80;99.90;;;;;;5094706;28;20476;-74
2021/03/17 00:40:00;;;;;;;18.10;17.23;;;5.90;99.90;;;;;;5094609;28;20823;-74
2021/03/17 00:42:27;;;;;;;18.03;17.13;;;5.90;99.90;;;;;;5094696;28;20487;-73
2021/03/17 00:44:53;;;;;;;16.30;15.60;;;5.80;99.90;;;;;;5094403;28;20940;-73
2021/03/17 00:47:19;;;;;;;16.63;15.93;;;5.90;99.90;;;;;;5094523;28;20454;-74
2021/03/17 00:49:45;;;;;;;17.93;17.13;;;5.90;99.90;;;;;;5094489;28;20448;-73
2021/03/17 00:52:11;;;;;;;18.03;17.00;;;6.00;99.90;;;;;;5094367;28;20450;-73
2021/03/17 00:54:39;;;;;;;17.10;16.30;;;6.00;99.90;;;;;;5094385;28;20438;-73
2021/03/17 00:57:05;;;;;;;17.17;16.37;;;6.00;99.90;;;;;;5094275;28;20946;-72
2021/03/17 00:59:31;;;;;;;17.00;15.90;;;5.90;99.90;;;;;;5093053;28;20502;-73
2021/03/17 01:01:58;;;;;;;18.00;16.97;;;5.80;99.90;;;;;;5094333;28;20446;-72
2021/03/17 01:04:25;;;;;;;17.30;16.40;;;5.90;99.90;;;;;;5093953;28;20480;-73
2021/03/17 01:06:51;;;;;;;17.77;16.90;;;5.90;99.90;;;;;;5094048;28;20569;-72
2021/03/17 01:09:17;;;;;;;16.80;16.00;;;5.90;99.90;;;;;;5094236;28;20445;-72
2021/03/17 01:11:44;;;;;;;18.80;17.90;;;5.90;99.90;;;;;;5094044;28;20465;-72
2021/03/17 01:14:11;;;;;;;19.57;18.30;;;5.90;99.90;;;;;;5094093;28;20443;-72
2021/03/17 01:16:38;;;;;;;19.93;18.83;;;5.90;99.90;;;;;;5093761;28;20476;-73
2021/03/17 01:19:04;;;;;;;18.13;17.20;;;5.80;99.90;;;;;;5093947;28;20959;-72
2021/03/17 01:21:31;;;;;;;18.07;17.07;;;5.90;99.90;;;;;;5093908;28;20450;-72
2021/03/17 01:23:57;;;;;;;17.70;16.77;;;5.80;99.90;;;;;;5093731;28;21002;-72
2021/03/17 01:26:23;;;;;;;19.10;18.00;;;5.80;99.90;;;;;;5093504;28;20756;-72
2021/03/17 01:28:50;;;;;;;19.93;19.00;;;5.80;99.90;;;;;;5093840;28;20456;-72
2021/03/17 01:31:17;;;;;;;29.30;27.80;;;5.70;99.90;;;;;;5093592;28;20449;-72
2021/03/17 01:33:43;;;;;;;29.70;28.30;;;5.60;99.90;;;;;;5093911;28;20458;-71
2021/03/17 01:36:09;;;;;;;31.43;29.83;;;5.40;99.90;;;;;;5093305;28;20464;-72
2021/03/17 01:38:35;;;;;;;30.53;28.83;;;5.40;99.90;;;;;;5093295;28;20452;-72
2021/03/17 01:41:02;;;;;;;30.13;28.53;;;5.40;99.90;;;;;;5093392;28;20448;-71
2021/03/17 01:43:28;;;;;;;31.50;29.90;;;5.50;99.90;;;;;;5093380;28;20591;-72
2021/03/17 01:45:56;;;;;;;31.33;29.63;;;5.40;99.90;;;;;;5093379;28;20457;-72
2021/03/17 01:48:22;;;;;;;28.83;27.43;;;5.50;99.90;;;;;;5092935;28;20458;-73
2021/03/17 01:50:51;;;;;;;30.37;28.87;;;5.50;99.90;;;;;;5093038;28;20446;-72
2021/03/17 01:53:21;;;;;;;28.67;27.13;;;5.50;99.90;;;;;;5093209;28;20444;-72
2021/03/17 01:55:47;;;;;;;28.77;27.37;;;5.40;99.90;;;;;;5093068;28;20934;-74
2021/03/17 01:58:13;;;;;;;28.80;27.30;;;5.30;99.90;;;;;;5092962;28;20943;-72
2021/03/17 02:00:41;;;;;;;28.70;27.20;;;5.30;99.90;;;;;;5093182;28;20459;-72
2021/03/17 02:03:09;;;;;;;29.07;27.57;;;5.30;99.90;;;;;;5093103;28;20483;-72
2021/03/17 02:05:40;;;;;;;30.30;28.50;;;5.30;99.90;;;;;;5092773;28;20502;-72
2021/03/17 02:08:09;;;;;;;29.37;27.80;;;5.30;99.90;;;;;;5092810;28;20442;-71
2021/03/17 02:10:36;;;;;;;28.77;27.27;;;5.30;99.90;;;;;;5092564;28;20450;-72
2021/03/17 02:13:15;;;;;;;30.20;28.50;;;5.30;99.90;;;;;;5092760;28;20796;-72
2021/03/17 02:15:51;;;;;;;29.77;28.27;;;5.40;99.90;;;;;;5092996;28;20439;-72
2021/03/17 02:18:29;;;;;;;28.37;26.90;;;5.40;99.90;;;;;;5092467;28;20534;-72
2021/03/17 02:21:13;;;;;;;28.53;27.13;;;5.40;99.90;;;;;;5092777;28;20451;-71
2021/03/17 02:23:47;;;;;;;28.83;27.33;;;5.30;99.90;;;;;;5092762;28;20489;-71
2021/03/17 02:27:04;;;;;;;27.77;26.17;;;5.30;99.90;;;;;;5092733;28;20451;-73
2021/03/17 02:30:04;;;;;;;28.20;26.70;;;5.30;99.90;;;;;;5029830;28;20489;-71
2021/03/17 02:33:04;;;;;;;27.57;26.07;;;5.20;99.90;;;;;;5029975;28;20460;-72
2021/03/17 02:35:32;;;;;;;25.90;24.60;;;5.10;99.90;;;;;;5092285;28;20490;-72
2021/03/17 02:38:03;;;;;;;26.57;25.17;;;5.10;99.90;;;;;;5092400;28;20961;-72
2021/03/17 02:40:32;;;;;;;26.63;25.20;;;5.10;99.90;;;;;;5092474;28;20526;-71
2021/03/17 02:43:05;;;;;;;26.70;25.30;;;5.10;99.90;;;;;;5092237;28;20844;-72
2021/03/17 02:45:32;;;;;;;27.13;25.83;;;5.20;99.90;;;;;;5092185;28;20992;-73
2021/03/17 02:48:05;;;;;;;26.37;25.03;;;5.20;99.90;;;;;;5092291;28;20456;-72
2021/03/17 02:50:34;;;;;;;25.97;24.77;;;5.10;99.90;;;;;;5092254;28;20429;-73
2021/03/17 02:53:04;;;;;;;24.97;23.87;;;5.10;99.90;;;;;;5091925;28;20455;-72
2021/03/17 02:55:34;;;;;;;24.80;23.60;;;5.10;99.90;;;;;;5092194;28;20466;-72
2021/03/17 02:58:02;;;;;;;25.27;24.07;;;5.10;99.90;;;;;;5092218;28;20447;-71
2021/03/17 03:00:30;;;;;;;26.80;25.20;;;5.00;99.90;;;;;;5092231;28;20843;-73
2021/03/17 03:02:59;;;;;;;25.83;24.53;;;5.00;99.90;;;;;;5091942;28;20488;-71
2021/03/17 03:05:26;;;;;;;25.37;23.93;;;5.00;99.90;;;;;;5091754;28;20456;-73
2021/03/17 03:07:55;;;;;;;25.30;24.10;;;5.00;99.90;;;;;;5091834;28;20904;-73
2021/03/17 03:10:24;;;;;;;25.07;23.80;;;5.00;99.90;;;;;;5091954;28;20452;-72
2021/03/17 03:12:50;;;;;;;25.00;23.60;;;5.00;99.90;;;;;;5091851;28;20449;-72
2021/03/17 03:15:18;;;;;;;25.80;24.60;;;5.00;99.90;;;;;;5091851;28;20453;-73
2021/03/17 03:17:45;;;;;;;26.50;25.10;;;5.00;99.90;;;;;;5091455;28;20481;-72
2021/03/17 03:20:15;;;;;;;26.50;25.10;;;5.00;99.90;;;;;;5091681;28;20452;-73
2021/03/17 03:22:43;;;;;;;26.13;24.80;;;5.00;99.90;;;;;;5091033;28;20478;-73
2021/03/17 03:25:12;;;;;;;24.63;23.63;;;5.00;99.90;;;;;;5091625;28;21019;-72
2021/03/17 03:27:39;;;;;;;24.50;23.40;;;4.90;99.90;;;;;;5091570;28;20441;-73
2021/03/17 03:30:07;;;;;;;24.90;23.70;;;4.90;99.90;;;;;;5091242;28;20461;-73
2021/03/17 03:32:34;;;;;;;24.30;23.00;;;4.80;99.90;;;;;;5091480;28;20451;-72
2021/03/17 03:35:00;;;;;;;24.10;22.90;;;4.80;99.90;;;;;;5091587;28;20482;-72
2021/03/17 03:37:26;;;;;;;24.27;23.23;;;4.80;99.90;;;;;;5091132;28;21019;-72
2021/03/17 03:39:52;;;;;;;25.13;23.93;;;4.90;99.90;;;;;;5091391;28;20453;-73
2021/03/17 03:42:19;;;;;;;25.80;24.50;;;4.90;99.90;;;;;;5091381;28;20447;-72
2021/03/17 03:44:46;;;;;;;25.60;24.40;;;4.90;99.90;;;;;;5091525;28;20484;-73
2021/03/17 03:47:12;;;;;;;24.63;23.43;;;4.80;99.90;;;;;;5091439;28;20444;-73
2021/03/17 03:49:38;;;;;;;23.97;22.83;;;4.80;99.90;;;;;;5091158;28;20448;-72
2021/03/17 03:52:09;;;;;;;25.50;24.20;;;4.80;99.90;;;;;;5091226;28;20457;-73
2021/03/17 03:54:42;;;;;;;24.40;23.30;;;4.80;99.90;;;;;;5091217;28;20449;-72
2021/03/17 03:57:13;;;;;;;24.00;22.90;;;4.80;99.90;;;;;;5082323;28;20439;-73
2021/03/17 03:59:44;;;;;;;25.20;23.87;;;4.90;99.90;;;;;;5082245;28;21019;-72
2021/03/17 04:02:13;;;;;;;25.10;23.80;;;4.90;99.90;;;;;;5081056;28;20469;-73
2021/03/17 04:04:44;;;;;;;24.00;22.80;;;4.80;99.90;;;;;;5081568;28;20483;-73
2021/03/17 04:07:11;;;;;;;24.07;22.77;;;4.80;99.90;;;;;;5080407;28;20445;-72
2021/03/17 04:09:44;;;;;;;24.07;22.77;;;4.80;99.90;;;;;;5079942;28;20442;-73
2021/03/17 04:12:11;;;;;;;24.90;23.50;;;4.70;99.90;;;;;;5080680;28;20437;-72
2021/03/17 04:14:39;;;;;;;23.13;21.73;;;4.60;99.90;;;;;;5079867;28;20438;-74
2021/03/17 04:17:11;;;;;;;24.60;23.40;;;4.60;99.90;;;;;;5079400;28;20453;-73
2021/03/17 04:19:41;;;;;;;23.80;22.50;;;4.60;99.90;;;;;;5079525;28;20446;-72
2021/03/17 04:22:09;;;;;;;23.63;22.43;;;4.70;99.90;;;;;;5079745;28;20863;-73
2021/03/17 04:24:38;;;;;;;24.27;22.97;;;4.70;99.90;;;;;;5079419;28;20623;-73
2021/03/17 04:27:06;;;;;;;24.27;22.77;;;4.70;99.90;;;;;;5079592;28;20449;-72
2021/03/17 04:29:34;;;;;;;22.57;21.37;;;4.70;99.90;;;;;;5080217;28;20444;-73
2021/03/17 04:32:02;;;;;;;24.30;23.00;;;4.80;99.90;;;;;;5081320;28;20454;-74
2021/03/17 04:34:30;;;;;;;21.90;20.80;;;4.90;99.90;;;;;;5082625;28;20439;-72
2021/03/17 04:36:57;;;;;;;24.77;23.47;;;4.90;99.90;;;;;;5083595;28;20464;-72
2021/03/17 04:39:25;;;;;;;22.70;21.33;;;4.90;99.90;;;;;;5084924;28;20443;-73
2021/03/17 04:41:54;;;;;;;23.13;21.83;;;4.90;99.90;;;;;;5084942;28;20450;-72
2021/03/17 04:44:21;;;;;;;22.90;21.60;;;4.90;99.90;;;;;;5085003;28;20486;-73
2021/03/17 04:46:49;;;;;;;22.50;21.30;;;5.00;99.90;;;;;;5083229;28;20443;-72
2021/03/17 04:49:18;;;;;;;22.67;21.27;;;5.00;99.90;;;;;;5083595;28;20441;-72
2021/03/17 04:51:47;;;;;;;22.57;21.37;;;5.00;99.90;;;;;;5085036;28;20448;-72
2021/03/17 04:54:14;;;;;;;23.43;22.03;;;5.00;99.90;;;;;;5083932;28;20435;-72
2021/03/17 04:56:43;;;;;;;22.30;21.03;;;4.90;99.90;;;;;;5082716;28;20441;-72
2021/03/17 04:59:11;;;;;;;22.47;21.13;;;4.90;99.90;;;;;;5085971;28;20460;-72
2021/03/17 05:01:42;;;;;;;23.03;21.73;;;5.00;99.90;;;;;;5082981;28;20455;-72
2021/03/17 05:04:10;;;;;;;23.13;21.73;;;5.10;99.90;;;;;;5082694;28;20486;-72
2021/03/17 05:06:38;;;;;;;23.13;21.53;;;5.00;99.90;;;;;;5082877;28;20812;-72
2021/03/17 05:09:08;;;;;;;23.20;21.80;;;5.00;99.90;;;;;;5082250;28;20443;-72
2021/03/17 05:11:36;;;;;;;26.03;24.43;;;5.00;99.90;;;;;;5083093;28;20552;-73
2021/03/17 05:14:03;;;;;;;23.37;22.07;;;5.00;99.90;;;;;;5078827;28;20442;-72
2021/03/17 05:16:31;;;;;;;23.00;21.50;;;5.10;99.90;;;;;;5073813;28;20460;-72
2021/03/17 05:18:59;;;;;;;24.73;23.03;;;5.10;99.90;;;;;;5073320;28;20488;-73
2021/03/17 05:21:27;;;;;;;23.20;21.80;;;5.20;99.90;;;;;;5073868;28;20458;-73
2021/03/17 05:23:54;;;;;;;25.20;23.63;;;5.20;99.90;;;;;;5073468;28;20494;-72
2021/03/17 05:26:22;;;;;;;24.80;22.80;;;5.20;99.90;;;;;;5073441;28;20500;-72
2021/03/17 05:28:50;;;;;;;25.23;23.67;;;5.30;99.90;;;;;;5073192;28;20456;-72
2021/03/17 05:31:18;;;;;;;24.07;22.47;;;5.30;99.90;;;;;;5073379;28;20476;-72
2021/03/17 05:33:45;;;;;;;25.53;23.90;;;5.30;99.90;;;;;;5073374;28;20837;-72
2021/03/17 05:36:12;;;;;;;26.00;24.20;;;5.40;99.90;;;;;;5072999;28;20477;-72
2021/03/17 05:38:38;;;;;;;26.97;25.20;;;5.40;99.90;;;;;;5073114;28;20499;-72
2021/03/17 05:41:05;;;;;;;24.90;23.00;;;5.30;99.90;;;;;;5073157;28;20446;-72
2021/03/17 05:43:34;;;;;;;25.67;23.93;;;5.40;99.90;;;;;;5072951;28;20526;-72
2021/03/17 05:46:04;;;;;;;25.80;24.00;;;5.30;99.90;;;;;;5072562;28;20485;-72
2021/03/17 05:48:32;;;;;;;26.07;24.33;;;5.30;99.90;;;;;;5072893;28;20450;-72
2021/03/17 05:50:59;;;;;;;26.47;24.77;;;5.30;99.90;;;;;;5072980;28;20793;-72
2021/03/17 05:53:26;;;;;;;25.50;23.80;;;5.50;99.90;;;;;;5072967;28;20458;-72
2021/03/17 05:55:52;;;;;;;28.00;25.93;;;5.50;99.90;;;;;;5072828;28;20446;-72
2021/03/17 05:58:21;;;;;;;25.67;23.77;;;5.40;99.90;;;;;;5080760;28;20959;-72
2021/03/17 06:00:48;;;;;;;25.57;23.57;;;5.40;99.90;;;;;;5092926;28;20819;-71
2021/03/17 06:03:15;;;;;;;27.93;25.67;;;5.30;99.90;;;;;;5093034;28;20489;-71
2021/03/17 06:05:43;;;;;;;26.67;24.77;;;5.30;99.90;;;;;;5093053;28;20449;-72
2021/03/17 06:08:13;;;;;;;27.03;25.10;;;5.40;99.90;;;;;;5093050;28;20855;-71
2021/03/17 06:10:41;;;;;;;27.63;25.33;;;5.20;99.90;;;;;;5092712;28;20430;-72
2021/03/17 06:13:09;;;;;;;29.17;26.70;;;5.20;99.90;;;;;;5092792;28;20454;-71
2021/03/17 06:15:38;;;;;;;30.87;28.47;;;5.20;99.90;;;;;;5092484;28;20518;-72
2021/03/17 06:18:14;;;;;;;33.50;30.80;;;5.20;99.90;;;;;;5092328;28;20491;-70
2021/03/17 06:20:42;;;;;;;40.50;37.60;;;5.20;99.90;;;;;;5092815;28;20453;-72
2021/03/17 06:23:08;;;;;;;39.73;37.00;;;5.20;99.90;;;;;;5092434;28;20478;-72
2021/03/17 06:25:35;;;;;;;39.10;36.20;;;5.10;99.90;;;;;;5092467;28;20454;-73
2021/03/17 06:28:02;;;;;;;40.07;37.27;;;5.20;99.90;;;;;;5092276;28;20450;-71
2021/03/17 06:30:29;;;;;;;43.27;39.97;;;5.10;99.90;;;;;;5092562;28;20946;-72
2021/03/17 06:32:56;;;;;;;39.37;36.57;;;5.10;99.90;;;;;;5092461;28;20444;-72
2021/03/17 06:35:25;;;;;;;40.60;37.80;;;4.90;99.90;;;;;;5092124;28;20454;-71
2021/03/17 06:37:52;;;;;;;39.33;36.67;;;5.00;99.90;;;;;;5092234;28;20471;-71
2021/03/17 06:40:27;;;;;;;40.40;37.50;;;5.00;99.90;;;;;;5092221;28;20446;-72
2021/03/17 06:42:54;;;;;;;38.10;35.50;;;5.00;99.90;;;;;;5092160;28;20452;-72
2021/03/17 06:45:33;;;;;;;41.67;38.43;;;5.00;99.90;;;;;;5092268;28;20451;-72
2021/03/17 06:48:18;;;;;;;41.53;38.53;;;5.00;99.90;;;;;;5092301;28;20529;-71
2021/03/17 06:50:45;;;;;;;41.90;37.73;;;5.10;99.90;;;;;;5092214;28;20447;-71
2021/03/17 06:53:11;;;;;;;38.53;35.63;;;5.00;99.90;;;;;;5092137;28;20940;-72
2021/03/17 06:55:37;;;;;;;41.67;38.57;;;5.10;99.90;;;;;;5091893;28;20499;-72
2021/03/17 06:58:04;;;;;;;42.23;38.80;;;5.20;99.90;;;;;;5091039;28;20543;-72
2021/03/17 07:00:32;;;;;;;40.97;37.63;;;5.30;99.90;;;;;;5091966;28;20934;-73
2021/03/17 07:03:00;;;;;;;40.03;36.67;;;5.40;99.90;;;;;;5091924;28;20458;-72
2021/03/17 07:05:35;;;;;;;35.50;32.80;;;5.50;99.90;;;;;;5091458;28;20937;-73
2021/03/17 07:08:02;;;;;;;37.80;34.80;;;5.40;99.90;;;;;;5092061;28;20792;-73
2021/03/17 07:10:31;;;;;;;37.60;34.50;;;5.40;99.90;;;;;;5091917;28;20868;-72
2021/03/17 07:12:59;;;;;;;39.63;36.63;;;5.30;99.90;;;;;;5091680;28;20862;-73
2021/03/17 07:15:26;;;;;;;38.93;35.77;;;5.30;99.90;;;;;;5091499;28;20452;-73
2021/03/17 07:18:14;;;;;;;44.03;40.17;;;5.30;99.90;;;;;;5091419;28;20998;-72
2021/03/17 07:20:43;;;;;;;39.20;35.80;;;5.30;99.90;;;;;;5091378;28;20447;-71
2021/03/17 07:23:33;;;;;;;36.50;33.93;;;5.40;99.90;;;;;;5091378;28;20577;-71
2021/03/17 07:26:17;;;;;;;41.77;38.57;;;5.50;99.90;;;;;;5091395;28;20829;-71
2021/03/17 07:28:52;;;;;;;37.43;34.57;;;5.60;99.90;;;;;;5091324;28;20951;-72
2021/03/17 07:31:20;;;;;;;35.83;33.03;;;5.80;99.90;;;;;;5091340;28;20461;-71
2021/03/17 07:33:46;;;;;;;36.53;33.30;;;5.80;99.90;;;;;;5091283;28;20475;-71
2021/03/17 07:36:28;;;;;;;36.80;33.83;;;6.00;99.90;;;;;;5091344;28;20481;-71
2021/03/17 07:38:56;;;;;;;35.17;32.47;;;6.00;99.90;;;;;;5091216;28;20452;-71
2021/03/17 07:41:23;;;;;;;33.47;31.00;;;6.10;99.90;;;;;;5091177;28;20453;-71
2021/03/17 07:43:51;;;;;;;32.50;29.90;;;6.40;99.90;;;;;;5091180;28;21069;-71
2021/03/17 07:46:17;;;;;;;30.63;28.30;;;6.50;99.90;;;;;;5091263;28;20450;-71
2021/03/17 07:48:44;;;;;;;29.77;27.30;;;6.50;99.90;;;;;;5091379;28;20462;-72
2021/03/17 07:51:10;;;;;;;30.80;28.27;;;6.50;99.90;;;;;;5091215;28;20453;-71
2021/03/17 07:53:37;;;;;;;27.53;25.33;;;6.50;99.90;;;;;;5091102;28;20476;-71
2021/03/17 07:56:05;;;;;;;27.37;24.97;;;6.60;99.90;;;;;;5091376;28;20446;-72
2021/03/17 07:58:32;;;;;;;27.00;24.90;;;6.60;99.90;;;;;;5091156;28;20439;-71
2021/03/17 08:00:58;;;;;;;27.90;25.50;;;6.60;99.90;;;;;;5091118;28;20465;-71
2021/03/17 08:03:26;;;;;;;27.57;25.40;;;6.70;99.90;;;;;;5090815;28;20992;-73
2021/03/17 08:05:52;;;;;;;28.07;25.70;;;6.80;99.90;;;;;;5090958;28;20959;-72
2021/03/17 08:08:20;;;;;;;25.53;23.57;;;6.90;99.90;;;;;;5091930;28;20465;-73
2021/03/17 08:10:47;;;;;;;24.83;22.97;;;7.20;99.90;;;;;;5094742;28;20449;-73
2021/03/17 08:13:15;;;;;;;26.23;24.37;;;7.40;99.90;;;;;;5092428;28;20551;-73
2021/03/17 08:15:43;;;;;;;24.27;22.43;;;7.60;99.90;;;;;;5095238;28;20453;-73
2021/03/17 08:18:57;;;;;;;24.30;22.47;;;7.70;99.90;;;;;;5094686;28;20546;-73
2021/03/17 08:21:46;;;;;;;26.90;24.60;;;7.70;99.90;;;;;;5032264;28;20460;-73
2021/03/17 08:24:39;;;;;;;26.23;24.13;;;8.00;99.90;;;;;;5032267;28;21026;-74
2021/03/17 08:27:16;;;;;;;25.80;23.57;;;8.10;99.90;;;;;;5080277;28;20446;-74
2021/03/17 08:29:44;;;;;;;23.00;21.30;;;8.90;99.90;;;;;;5094733;28;20504;-74
2021/03/17 08:32:12;;;;;;;22.90;21.20;;;10.80;99.90;;;;;;5094738;28;20446;-74
2021/03/17 08:34:39;;;;;;;22.93;21.23;;;12.50;99.90;;;;;;5094477;28;20442;-74
2021/03/17 08:37:07;;;;;;;21.70;20.20;;;13.10;99.90;;;;;;5094324;28;20469;-74
2021/03/17 08:39:42;;;;;;;22.80;21.00;;;12.90;99.90;;;;;;5094629;28;20453;-73
2021/03/17 08:42:09;;;;;;;20.90;19.50;;;12.30;99.90;;;;;;5092716;28;20456;-73
2021/03/17 08:44:48;;;;;;;20.20;18.80;;;12.50;99.90;;;;;;5094248;28;20478;-73
2021/03/17 08:47:22;;;;;;;21.93;20.37;;;11.90;99.90;;;;;;5094611;28;20454;-74
2021/03/17 08:49:50;;;;;;;22.57;20.87;;;11.40;99.90;;;;;;5094324;28;20923;-73
2021/03/17 08:52:18;;;;;;;20.10;18.60;;;10.80;99.90;;;;;;5094315;28;20498;-72
2021/03/17 08:55:09;;;;;;;19.47;17.97;;;9.90;99.90;;;;;;5094327;28;20446;-74
2021/03/17 08:57:56;;;;;;;21.87;19.97;;;9.40;99.90;;;;;;5093991;28;20454;-72
2021/03/17 09:00:43;;;;;;;16.87;15.87;;;10.40;99.90;;;;;;5088280;28;20476;-73
2021/03/17 09:03:10;;;;;;;17.30;16.30;;;11.30;99.90;;;;;;5090277;28;20446;-75
2021/03/17 09:05:37;;;;;;;18.10;17.10;;;12.70;96.40;;;;;;5074993;28;20948;-73
2021/03/17 09:08:06;;;;;;;17.93;16.83;;;12.60;96.50;;;;;;5077417;28;21114;-74
2021/03/17 09:10:41;;;;;;;17.47;16.47;;;13.70;94.50;;;;;;5094111;28;20948;-73
2021/03/17 09:13:07;;;;;;;15.03;14.23;;;15.40;93.80;;;;;;5094083;28;20472;-73
2021/03/17 09:15:44;;;;;;;16.47;15.47;;;15.70;82.50;;;;;;5093882;28;20458;-73
2021/03/17 09:18:10;;;;;;;15.83;15.03;;;14.50;87.40;;;;;;5076903;28;20528;-73
2021/03/17 09:20:41;;;;;;;16.03;15.23;;;15.20;88.70;;;;;;5072710;28;20449;-73
2021/03/17 09:23:11;;;;;;;16.77;15.80;;;16.00;85.80;;;;;;5073693;28;20451;-73
2021/03/17 09:25:44;;;;;;;15.27;14.57;;;16.20;79.00;;;;;;5073591;28;20450;-74
2021/03/17 09:28:12;;;;;;;16.33;15.43;;;15.50;79.10;;;;;;5073558;28;20926;-74
2021/03/17 09:30:44;;;;;;;14.67;13.77;;;15.90;80.00;;;;;;5073519;28;20546;-73
2021/03/17 09:33:13;;;;;;;14.87;13.87;;;16.70;70.50;;;;;;5073298;28;20451;-74
2021/03/17 09:35:40;;;;;;;14.10;13.30;;;16.70;68.70;;;;;;5073509;28;20453;-73
2021/03/17 09:38:10;;;;;;;14.60;13.87;;;16.20;67.90;;;;;;5073536;28;20469;-72
2021/03/17 09:40:44;;;;;;;14.30;13.53;;;15.80;69.00;;;;;;5072701;28;20452;-73
2021/03/17 09:43:28;;;;;;;15.23;14.37;;;15.30;69.90;;;;;;5080615;28;20457;-73
2021/03/17 09:45:56;;;;;;;14.50;13.80;;;14.60;72.70;;;;;;5073183;28;20455;-73
2021/03/17 09:48:22;;;;;;;15.80;14.90;;;13.80;76.60;;;;;;5073029;28;20455;-72
2021/03/17 09:50:55;;;;;;;13.00;12.40;;;13.40;78.70;;;;;;5092085;28;20458;-72
2021/03/17 09:53:21;;;;;;;13.57;12.87;;;12.60;77.30;;;;;;5093095;28;20866;-73
2021/03/17 09:55:48;;;;;;;12.83;12.13;;;12.30;79.60;;;;;;5093123;28;20480;-72
2021/03/17 09:58:14;;;;;;;13.27;12.57;;;11.70;82.70;;;;;;5092541;28;20454;-73
2021/03/17 10:00:41;;;;;;;13.50;12.80;;;11.40;86.10;;;;;;5092714;28;20446;-72
2021/03/17 10:03:12;;;;;;;13.07;12.47;;;11.50;90.10;;;;;;5092641;28;20493;-72
2021/03/17 10:05:39;;;;;;;13.73;12.83;;;11.40;90.80;;;;;;5092846;28;20461;-72
2021/03/17 10:08:06;;;;;;;14.00;13.20;;;11.10;89.40;;;;;;5078625;28;20473;-73
2021/03/17 10:10:33;;;;;;;14.10;13.40;;;11.20;90.70;;;;;;5092440;28;20438;-72
2021/03/17 10:13:00;;;;;;;13.17;12.40;;;11.30;90.80;;;;;;5092920;28;20454;-73
2021/03/17 10:15:27;;;;;;;13.80;12.97;;;11.50;89.60;;;;;;5092595;28;20450;-73
2021/03/17 10:17:57;;;;;;;13.63;12.77;;;11.60;89.60;;;;;;5092326;28;20493;-73
2021/03/17 10:20:26;;;;;;;12.87;12.20;;;11.10;86.70;;;;;;5092392;28;20489;-72
2021/03/17 10:22:57;;;;;;;12.90;12.20;;;10.70;89.50;;;;;;5085023;28;20454;-72
2021/03/17 10:25:26;;;;;;;14.50;13.50;;;10.70;91.80;;;;;;5072103;28;20494;-75
2021/03/17 10:27:57;;;;;;;13.10;12.40;;;10.90;91.00;;;;;;5071687;28;20451;-72
2021/03/17 10:30:28;;;;;;;13.40;12.63;;;10.90;90.80;;;;;;5071419;28;20461;-72
2021/03/17 10:32:56;;;;;;;13.30;12.27;;;10.90;90.50;;;;;;5071397;28;20447;-71
2021/03/17 10:35:23;;;;;;;12.97;12.17;;;10.60;90.10;;;;;;5071454;28;20455;-71
2021/03/17 10:37:50;;;;;;;13.63;11.93;;;9.90;90.90;;;;;;5071199;28;20471;-72
2021/03/17 10:40:18;;;;;;;13.23;12.13;;;10.50;91.80;;;;;;5072910;28;20824;-72
2021/03/17 10:42:46;;;;;;;12.40;11.80;;;11.30;90.60;;;;;;5091079;28;20450;-73
2021/03/17 10:45:15;;;;;;;12.53;11.63;;;12.00;88.50;;;;;;5091565;28;20481;-73
2021/03/17 10:47:43;;;;;;;13.10;12.37;;;11.60;85.80;;;;;;5090689;28;20457;-72
2021/03/17 10:50:12;;;;;;;13.30;12.50;;;10.70;88.50;;;;;;5091439;28;20861;-72
2021/03/17 10:52:41;;;;;;;12.87;12.07;;;10.00;91.30;;;;;;5091431;28;20546;-72
2021/03/17 10:55:09;;;;;;;13.80;13.00;;;9.30;94.70;;;;;;5091426;28;20557;-72
2021/03/17 10:57:36;;;;;;;13.10;12.40;;;9.10;96.50;;;;;;5090931;28;20595;-72
2021/03/17 11:00:15;;;;;;;13.07;12.27;;;9.40;96.90;;;;;;5091449;28;20510;-73
2021/03/17 11:02:42;;;;;;;15.00;14.00;;;11.00;94.70;;;;;;5091173;28;20458;-73
2021/03/17 11:05:11;;;;;;;13.87;12.93;;;12.30;92.00;;;;;;5091071;28;20490;-72
2021/03/17 11:08:11;;;;;;;14.70;13.80;;;12.10;90.00;;;;;;5091299;28;20758;-72
2021/03/17 11:10:58;;;;;;;13.20;12.50;;;11.30;91.30;;;;;;5028649;28;20990;-73
2021/03/17 11:13:45;;;;;;;12.63;11.63;;;10.60;93.00;;;;;;5028426;28;20444;-72
2021/03/17 11:16:28;;;;;;;14.13;13.13;;;10.10;93.70;;;;;;5054479;28;20446;-73
2021/03/17 11:18:56;;;;;;;13.17;12.17;;;9.60;95.30;;;;;;5079206;28;20564;-72
2021/03/17 11:21:25;;;;;;;13.27;12.37;;;9.00;95.90;;;;;;5091370;28;20466;-72
2021/03/17 11:23:54;;;;;;;14.07;13.10;;;8.80;97.90;;;;;;5091134;28;20482;-73
2021/03/17 11:26:26;;;;;;;12.10;11.30;;;8.30;99.10;;;;;;5091513;28;20858;-73
2021/03/17 11:28:55;;;;;;;11.90;11.20;;;7.90;99.90;;;;;;5091438;28;20460;-73
2021/03/17 11:31:27;;;;;;;13.23;12.30;;;7.50;99.90;;;;;;5091579;28;20566;-73
2021/03/17 11:33:54;;;;;;;11.13;10.47;;;7.20;99.90;;;;;;5091127;28;20446;-74
2021/03/17 11:36:21;;;;;;;14.03;13.07;;;7.00;99.90;;;;;;5091058;28;20476;-74
2021/03/17 11:38:48;;;;;;;12.03;11.33;;;7.10;99.90;;;;;;5091645;28;20453;-73
2021/03/17 11:41:16;;;;;;;12.30;11.13;;;7.10;99.90;;;;;;5091631;28;20442;-72
2021/03/17 11:43:42;;;;;;;12.27;10.93;;;7.10;99.90;;;;;;5090958;28;20481;-73
2021/03/17 11:46:08;;;;;;;14.20;12.97;;;7.10;99.90;;;;;;5091296;28;20455;-73
2021/03/17 11:48:35;;;;;;;15.50;14.60;;;7.20;99.90;;;;;;5091602;28;20456;-73
2021/03/17 11:51:04;;;;;;;16.17;15.00;;;7.10;99.90;;;;;;5091574;28;20518;-72
2021/03/17 11:53:31;;;;;;;17.53;16.50;;;7.00;99.90;;;;;;5091359;28;20456;-71
2021/03/17 11:55:58;;;;;;;20.77;19.47;;;6.90;99.90;;;;;;5091560;28;20453;-71
2021/03/17 11:58:25;;;;;;;23.30;22.10;;;6.90;99.90;;;;;;5091288;28;20477;-72
2021/03/17 12:00:51;;;;;;;24.70;23.30;;;6.70;99.90;;;;;;5091431;28;20456;-71
2021/03/17 12:03:17;;;;;;;23.57;22.37;;;6.70;99.90;;;;;;5091191;28;20475;-71
2021/03/17 12:05:45;;;;;;;24.63;23.23;;;6.40;99.90;;;;;;5091308;28;20457;-72
2021/03/17 12:08:13;;;;;;;26.73;25.27;;;6.30;99.90;;;;;;5091497;28;20463;-73
2021/03/17 12:10:39;;;;;;;31.77;29.80;;;6.20;99.90;;;;;;5091243;28;20460;-72
2021/03/17 12:13:06;;;;;;;35.47;33.17;;;5.90;99.90;;;;;;5091313;28;20458;-73
2021/03/17 12:15:33;;;;;;;35.87;33.67;;;5.60;99.90;;;;;;5091386;28;20833;-73
2021/03/17 12:18:00;;;;;;;34.40;32.20;;;5.40;99.90;;;;;;5091023;28;20472;-72
2021/03/17 12:20:27;;;;;;;33.03;31.33;;;5.50;99.90;;;;;;5091433;28;20970;-73
2021/03/17 12:22:54;;;;;;;35.93;33.83;;;5.40;99.90;;;;;;5091277;28;20448;-72
2021/03/17 12:25:21;;;;;;;37.80;35.60;;;5.40;99.90;;;;;;5091139;28;20485;-71
2021/03/17 12:27:47;;;;;;;36.73;34.63;;;5.50;99.90;;;;;;5091234;28;20457;-72
2021/03/17 12:30:16;;;;;;;33.17;31.27;;;5.50;99.90;;;;;;5091473;28;20456;-71
2021/03/17 12:32:44;;;;;;;36.07;33.53;;;5.50;99.90;;;;;;5091185;28;20456;-71
2021/03/17 12:35:13;;;;;;;35.70;33.50;;;5.40;99.90;;;;;;5091137;28;20482;-71
2021/03/17 12:37:41;;;;;;;36.43;34.33;;;5.40;99.90;;;;;;5091234;28;20473;-72
2021/03/17 12:40:09;;;;;;;36.57;34.47;;;5.30;99.90;;;;;;5091178;28;20453;-71
2021/03/17 12:42:36;;;;;;;37.63;35.10;;;5.30;99.90;;;;;;5090968;28;21014;-71
2021/03/17 12:45:04;;;;;;;36.70;34.60;;;5.20;99.90;;;;;;5090984;28;20513;-70
2021/03/17 12:47:30;;;;;;;36.00;33.77;;;5.10;99.90;;;;;;5091025;28;20461;-71